createdAt,value
2022-09-28T00:02:01.730Z,54.83
2022-09-28T00:04:28.370Z,50.17
2022-09-28T00:06:54.922Z,53.13
2022-09-28T00:09:21.491Z,50.90
2022-09-28T00:11:48.069Z,52.58
2022-09-28T00:14:15.481Z,57.97
2022-09-28T00:16:44.097Z,57.83
2022-09-28T00:19:12.266Z,62.55
2022-09-28T00:21:40.949Z,58.25
2022-09-28T00:24:13.113Z,61.90
2022-09-28T00:26:41.119Z,59.80
2022-09-28T00:29:12.997Z,58.90
2022-09-28T00:31:39.678Z,57.70
2022-09-28T00:34:06.364Z,52.67
2022-09-28T00:36:33.748Z,48.90
2022-09-28T00:39:04.803Z,57.28
2022-09-28T00:41:31.457Z,55.22
2022-09-28T00:44:22.921Z,52.65
2022-09-28T00:47:00.177Z,50.22
2022-09-28T00:49:43.492Z,50.42
2022-09-28T00:52:13.801Z,48.47
2022-09-28T00:54:42.299Z,50.33
2022-09-28T00:57:09.367Z,51.22
2022-09-28T00:59:35.948Z,50.50
2022-09-28T01:02:02.854Z,50.40
2022-09-28T01:04:30.303Z,52.75
2022-09-28T01:06:58.075Z,49.70
2022-09-28T01:09:26.201Z,49.13
2022-09-28T01:11:52.926Z,51.88
2022-09-28T01:14:20.718Z,48.42
2022-09-28T01:16:59.272Z,55.85
2022-09-28T01:19:37.945Z,50.47
2022-09-28T01:22:19.672Z,57.38
2022-09-28T01:24:48.422Z,54.33
2022-09-28T01:27:21.093Z,50.33
2022-09-28T01:29:47.624Z,54.70
2022-09-28T01:32:32.898Z,50.63
2022-09-28T01:35:10.366Z,50.47
2022-09-28T01:37:52.220Z,47.80
2022-09-28T01:40:21.000Z,54.15
2022-09-28T01:42:51.312Z,47.13
2022-09-28T01:45:25.000Z,47.53
2022-09-28T01:47:55.764Z,47.72
2022-09-28T01:50:24.371Z,45.75
2022-09-28T01:53:04.275Z,48.35
2022-09-28T01:55:34.219Z,49.03
2022-09-28T01:58:10.201Z,51.35
2022-09-28T02:00:39.471Z,54.35
2022-09-28T02:03:10.107Z,43.78
2022-09-28T02:05:38.189Z,53.35
2022-09-28T02:08:10.867Z,49.42
2022-09-28T02:10:44.607Z,52.45
2022-09-28T02:13:16.261Z,53.97
2022-09-28T02:15:49.583Z,47.53
2022-09-28T02:18:16.357Z,49.47
2022-09-28T02:20:48.711Z,45.35
2022-09-28T02:23:15.522Z,48.45
2022-09-28T02:25:49.892Z,51.92
2022-09-28T02:28:16.599Z,52.88
2022-09-28T02:30:44.519Z,53.58
2022-09-28T02:33:13.153Z,44.85
2022-09-28T02:35:41.393Z,44.53
2022-09-28T02:38:08.278Z,45.17
2022-09-28T02:40:36.832Z,51.22
2022-09-28T02:43:15.617Z,49.17
2022-09-28T02:46:08.679Z,45.33
2022-09-28T02:48:43.729Z,54.80
2022-09-28T02:51:35.976Z,51.97
2022-09-28T02:54:21.910Z,50.20
2022-09-28T02:56:54.543Z,49.65
2022-09-28T02:59:37.297Z,48.30
2022-09-28T03:02:11.130Z,51.08
2022-09-28T03:04:47.388Z,50.75
2022-09-28T03:07:25.720Z,47.15
2022-09-28T03:10:01.578Z,44.88
2022-09-28T03:12:31.543Z,42.85
2022-09-28T03:15:10.710Z,52.95
2022-09-28T03:17:37.508Z,52.10
2022-09-28T03:20:05.217Z,51.60
2022-09-28T03:22:31.787Z,50.55
2022-09-28T03:24:58.450Z,50.67
2022-09-28T03:27:25.079Z,51.30
2022-09-28T03:29:51.670Z,56.17
2022-09-28T03:32:18.256Z,56.10
2022-09-28T03:34:44.826Z,61.20
2022-09-28T03:37:11.428Z,60.55
2022-09-28T03:39:37.962Z,55.83
2022-09-28T03:42:04.585Z,59.67
2022-09-28T03:44:31.277Z,55.55
2022-09-28T03:46:57.877Z,62.10
2022-09-28T03:49:24.407Z,58.85
2022-09-28T03:51:51.058Z,50.92
2022-09-28T03:54:17.715Z,55.47
2022-09-28T03:56:44.278Z,58.60
2022-09-28T03:59:11.326Z,59.92
2022-09-28T04:01:38.148Z,57.78
2022-09-28T04:04:04.808Z,55.88
2022-09-28T04:06:31.394Z,55.25
2022-09-28T04:08:58.086Z,56.03
2022-09-28T04:11:24.688Z,58.63
2022-09-28T04:13:51.276Z,56.83
2022-09-28T04:16:18.989Z,51.88
2022-09-28T04:18:45.648Z,52.03
2022-09-28T04:21:13.293Z,49.60
2022-09-28T04:23:40.390Z,50.63
2022-09-28T04:26:16.634Z,51.40
2022-09-28T04:29:06.297Z,52.50
2022-09-28T04:31:45.854Z,51.65
2022-09-28T04:34:24.709Z,44.15
2022-09-28T04:36:51.301Z,48.42
2022-09-28T04:39:19.472Z,47.80
2022-09-28T04:41:48.345Z,45.47
2022-09-28T04:44:15.058Z,49.45
2022-09-28T04:46:41.600Z,52.33
2022-09-28T04:49:10.084Z,45.97
2022-09-28T04:51:36.664Z,45.20
2022-09-28T04:54:03.345Z,45.22
2022-09-28T04:56:29.904Z,47.08
2022-09-28T04:58:56.441Z,49.83
2022-09-28T05:01:24.353Z,49.95
2022-09-28T05:03:51.208Z,49.78
2022-09-28T05:06:17.993Z,48.90
2022-09-28T05:08:46.942Z,42.05
2022-09-28T05:11:14.309Z,44.67
2022-09-28T05:13:45.538Z,43.80
2022-09-28T05:16:16.427Z,41.08
2022-09-28T05:18:43.060Z,38.20
2022-09-28T05:21:14.208Z,43.67
2022-09-28T05:23:43.814Z,34.28
2022-09-28T05:26:10.534Z,40.58
2022-09-28T05:28:37.145Z,40.08
2022-09-28T05:31:05.008Z,42.67
2022-09-28T05:33:32.643Z,33.13
2022-09-28T05:36:05.602Z,31.52
2022-09-28T05:38:32.273Z,32.00
2022-09-28T05:41:02.102Z,36.63
2022-09-28T05:43:32.250Z,36.63
2022-09-28T05:46:02.189Z,41.25
2022-09-28T05:48:43.916Z,36.72
2022-09-28T05:51:10.493Z,30.02
2022-09-28T05:53:37.058Z,34.47
2022-09-28T05:56:03.724Z,37.53
2022-09-28T05:58:30.304Z,37.28
2022-09-28T06:00:57.415Z,33.58
2022-09-28T06:03:24.578Z,38.70
2022-09-28T06:05:51.565Z,34.75
2022-09-28T06:08:18.159Z,38.13
2022-09-28T06:10:44.740Z,34.45
2022-09-28T06:13:12.120Z,35.90
2022-09-28T06:15:39.213Z,37.92
2022-09-28T06:18:07.907Z,32.30
2022-09-28T06:20:36.236Z,34.47
2022-09-28T06:23:03.183Z,29.40
2022-09-28T06:25:29.818Z,36.45
2022-09-28T06:28:05.389Z,31.58
2022-09-28T06:30:34.416Z,32.45
2022-09-28T06:33:02.044Z,30.95
2022-09-28T06:35:30.465Z,29.90
2022-09-28T06:37:58.311Z,30.02
2022-09-28T06:40:25.158Z,27.20
2022-09-28T06:43:10.930Z,29.83
2022-09-28T06:45:38.472Z,30.05
2022-09-28T06:48:05.603Z,26.52
2022-09-28T06:50:34.340Z,30.05
2022-09-28T06:53:01.211Z,29.73
2022-09-28T06:55:28.257Z,30.90
2022-09-28T06:58:01.935Z,30.83
2022-09-28T07:00:31.253Z,31.27
2022-09-28T07:02:57.981Z,27.77
2022-09-28T07:05:27.404Z,29.73
2022-09-28T07:07:57.936Z,28.08
2022-09-28T07:10:25.796Z,27.02
2022-09-28T07:12:52.502Z,29.58
2022-09-28T07:15:19.567Z,30.92
2022-09-28T07:17:58.337Z,28.42
2022-09-28T07:20:27.617Z,29.42
2022-09-28T07:23:16.006Z,30.35
2022-09-28T07:25:48.062Z,28.92
2022-09-28T07:28:15.633Z,24.92
2022-09-28T07:30:44.262Z,23.02
2022-09-28T07:33:14.617Z,22.52
2022-09-28T07:35:44.652Z,23.10
2022-09-28T07:38:11.281Z,23.30
2022-09-28T07:40:56.811Z,25.45
2022-09-28T07:43:26.497Z,25.85
2022-09-28T07:45:56.892Z,24.80
2022-09-28T07:48:23.791Z,26.02
2022-09-28T07:50:57.373Z,23.45
2022-09-28T07:53:25.488Z,24.65
2022-09-28T07:55:56.717Z,24.80
2022-09-28T07:58:23.384Z,22.30
2022-09-28T08:00:56.760Z,22.52
2022-09-28T08:03:30.233Z,23.48
2022-09-28T08:05:59.653Z,21.10
2022-09-28T08:08:27.026Z,19.95
2022-09-28T08:10:53.657Z,21.55
2022-09-28T08:13:22.245Z,18.45
2022-09-28T08:15:51.909Z,20.17
2022-09-28T08:18:18.786Z,22.65
2022-09-28T08:21:04.060Z,19.90
2022-09-28T08:23:30.806Z,21.98
2022-09-28T08:25:58.140Z,24.90
2022-09-28T08:28:25.136Z,23.98
2022-09-28T08:30:51.862Z,24.85
2022-09-28T08:33:20.395Z,22.25
2022-09-28T08:35:47.696Z,24.73
2022-09-28T08:38:14.668Z,26.15
2022-09-28T08:41:03.957Z,24.95
2022-09-28T08:43:41.597Z,28.52
2022-09-28T08:46:09.743Z,24.23
2022-09-28T08:48:57.099Z,24.40
2022-09-28T08:51:44.005Z,26.73
2022-09-28T08:54:27.057Z,23.90
2022-09-28T08:57:18.722Z,23.27
2022-09-28T08:59:56.126Z,23.23
2022-09-28T09:02:34.421Z,22.77
2022-09-28T09:05:05.018Z,21.73
2022-09-28T09:07:49.523Z,21.80
2022-09-28T09:10:28.664Z,17.33
2022-09-28T09:13:07.334Z,21.63
2022-09-28T09:15:40.910Z,26.42
2022-09-28T09:18:23.779Z,22.35
2022-09-28T09:21:10.159Z,21.98
2022-09-28T09:23:56.785Z,25.50
2022-09-28T09:26:39.126Z,24.05
2022-09-28T09:29:37.651Z,23.13
2022-09-28T09:32:19.239Z,21.10
2022-09-28T09:35:06.865Z,23.65
2022-09-28T09:38:07.086Z,21.70
2022-09-28T09:40:42.110Z,24.60
2022-09-28T09:45:49.301Z,24.23
2022-09-28T09:48:15.869Z,21.13
2022-09-28T09:50:57.893Z,21.33
2022-09-28T09:53:28.917Z,20.17
2022-09-28T09:56:04.214Z,20.13
2022-09-28T09:58:34.461Z,20.17
2022-09-28T10:01:17.408Z,20.23
2022-09-28T10:03:46.209Z,19.63
2022-09-28T10:06:16.994Z,21.40
2022-09-28T10:08:52.096Z,21.17
2022-09-28T10:14:04.590Z,20.77
2022-09-28T10:16:33.195Z,18.52
2022-09-28T10:19:00.543Z,18.25
2022-09-28T10:21:27.890Z,19.52
2022-09-28T10:23:57.643Z,23.00
2022-09-28T10:26:28.443Z,19.88
2022-09-28T10:29:05.005Z,18.52
2022-09-28T10:31:40.599Z,22.80
2022-09-28T10:34:10.066Z,22.00
2022-09-28T10:37:05.451Z,19.25
2022-09-28T10:39:32.060Z,20.75
2022-09-28T10:42:04.338Z,22.98
2022-09-28T10:44:41.967Z,20.65
2022-09-28T10:47:15.191Z,20.92
2022-09-28T10:49:47.244Z,23.27
2022-09-28T10:52:41.804Z,19.48
2022-09-28T10:55:32.507Z,22.50
2022-09-28T10:58:30.335Z,20.05
2022-09-28T11:01:06.258Z,21.48
2022-09-28T11:03:33.097Z,20.23
2022-09-28T11:06:07.473Z,23.13
2022-09-28T11:08:42.844Z,21.35
2022-09-28T11:11:15.090Z,20.48
2022-09-28T11:13:46.070Z,21.50
2022-09-28T11:16:29.853Z,24.02
2022-09-28T11:18:57.732Z,22.27
2022-09-28T11:21:27.099Z,24.85
2022-09-28T11:24:27.389Z,22.30
2022-09-28T11:27:00.200Z,27.33
2022-09-28T11:29:44.210Z,23.48
2022-09-28T11:32:15.489Z,21.92
2022-09-28T11:34:59.936Z,22.98
2022-09-28T11:37:36.109Z,25.38
2022-09-28T11:40:21.433Z,22.83
2022-09-28T11:42:56.821Z,20.88
2022-09-28T11:45:26.196Z,26.70
2022-09-28T11:47:57.811Z,23.90
2022-09-28T11:50:48.108Z,25.02
2022-09-28T11:53:29.333Z,25.13
2022-09-28T11:56:30.273Z,24.15
2022-09-28T11:59:14.350Z,30.05
2022-09-28T12:01:45.514Z,27.77
2022-09-28T12:04:23.102Z,30.88
2022-09-28T12:07:19.109Z,27.00
2022-09-28T12:10:00.393Z,25.92
2022-09-28T12:12:52.465Z,26.17
2022-09-28T12:15:23.028Z,28.98
2022-09-28T12:18:07.372Z,27.15
2022-09-28T12:20:39.341Z,25.42
2022-09-28T12:23:11.849Z,28.98
2022-09-28T12:25:48.447Z,26.30
2022-09-28T12:28:22.651Z,25.55
2022-09-28T12:30:51.881Z,27.10
2022-09-28T12:33:18.524Z,26.70
2022-09-28T12:36:07.900Z,27.85
2022-09-28T12:39:19.062Z,29.27
2022-09-28T12:42:03.534Z,26.95
2022-09-28T12:44:32.786Z,24.33
2022-09-28T12:47:23.846Z,31.90
2022-09-28T12:50:38.044Z,27.95
2022-09-28T12:52:52.528Z,27.75
2022-09-28T12:55:41.574Z,30.05
2022-09-28T12:58:50.785Z,26.40
2022-09-28T13:01:51.252Z,34.25
2022-09-28T13:04:27.361Z,28.10
2022-09-28T13:07:42.883Z,35.28
2022-09-28T13:10:22.610Z,33.20
2022-09-28T13:13:26.976Z,32.42
2022-09-28T13:16:00.555Z,35.03
2022-09-28T13:18:48.929Z,35.30
2022-09-28T13:21:41.853Z,32.63
2022-09-28T13:24:31.050Z,32.92
2022-09-28T13:27:04.609Z,33.22
2022-09-28T13:29:32.132Z,37.92
2022-09-28T13:32:00.113Z,32.78
2022-09-28T13:34:32.900Z,34.47
2022-09-28T13:37:14.886Z,33.97
2022-09-28T13:39:44.527Z,37.05
2022-09-28T13:42:40.713Z,34.35
2022-09-28T13:45:22.506Z,36.67
2022-09-28T13:48:14.585Z,34.78
2022-09-28T13:50:56.543Z,33.90
2022-09-28T13:53:45.303Z,33.70
2022-09-28T13:56:38.119Z,28.88
2022-09-28T13:59:28.967Z,30.75
2022-09-28T14:02:40.214Z,29.75
2022-09-28T14:05:52.361Z,26.63
2022-09-28T14:08:28.389Z,21.58
2022-09-28T14:11:25.358Z,23.58
2022-09-28T14:13:59.994Z,24.92
2022-09-28T14:16:31.225Z,22.83
2022-09-28T14:19:02.911Z,25.42
2022-09-28T14:21:58.196Z,25.00
2022-09-28T14:25:07.113Z,24.83
2022-09-28T14:27:41.992Z,24.98
2022-09-28T14:30:11.532Z,23.05
2022-09-28T14:32:40.026Z,24.42
2022-09-28T14:35:18.597Z,25.77
2022-09-28T14:38:07.104Z,24.35
2022-09-28T14:41:15.345Z,27.27
2022-09-28T14:43:44.964Z,26.63
2022-09-28T14:46:11.596Z,26.58
2022-09-28T14:48:50.988Z,28.73
2022-09-28T14:51:26.821Z,30.73
2022-09-28T14:53:54.958Z,29.23
2022-09-28T14:56:22.255Z,32.95
2022-09-28T14:58:54.122Z,29.88
2022-09-28T15:01:24.609Z,37.15
2022-09-28T15:04:00.429Z,30.95
2022-09-28T15:06:29.147Z,32.80
2022-09-28T15:08:55.755Z,30.45
2022-09-28T15:11:24.439Z,32.83
2022-09-28T15:13:58.216Z,31.65
2022-09-28T15:16:24.832Z,32.15
2022-09-28T15:19:06.733Z,35.28
2022-09-28T15:21:43.267Z,34.42
2022-09-28T15:24:31.417Z,37.00
2022-09-28T15:26:59.322Z,34.95
2022-09-28T15:29:31.089Z,40.13
2022-09-28T15:31:58.593Z,38.47
2022-09-28T15:34:48.403Z,37.50
2022-09-28T15:37:17.264Z,41.33
2022-09-28T15:39:48.322Z,40.85
2022-09-28T15:42:16.693Z,42.40
2022-09-28T15:44:45.977Z,41.70
2022-09-28T15:47:14.727Z,40.13
2022-09-28T15:50:02.423Z,44.67
2022-09-28T15:52:38.706Z,44.58
2022-09-28T15:55:26.417Z,43.50
2022-09-28T15:58:15.181Z,46.60
2022-09-28T16:00:42.633Z,51.97
2022-09-28T16:03:09.210Z,47.33
2022-09-28T16:05:43.547Z,51.88
2022-09-28T16:08:42.035Z,51.07
2022-09-28T16:11:21.820Z,52.70
2022-09-28T16:13:57.437Z,59.58
2022-09-28T16:16:52.226Z,55.05
2022-09-28T16:19:23.547Z,51.47
2022-09-28T16:21:52.110Z,61.65
2022-09-28T16:24:22.084Z,60.08
2022-09-28T16:26:49.389Z,58.08
2022-09-28T16:29:27.332Z,61.58
2022-09-28T16:31:54.074Z,63.60
2022-09-28T16:34:24.852Z,59.60
2022-09-28T16:36:51.739Z,62.80
2022-09-28T16:39:19.040Z,65.18
2022-09-28T16:41:49.112Z,61.50
2022-09-28T16:44:19.718Z,61.97
2022-09-28T16:46:46.651Z,62.35
2022-09-28T16:49:18.772Z,59.95
2022-09-28T16:51:47.207Z,66.32
2022-09-28T16:54:35.128Z,68.65
2022-09-28T16:57:02.336Z,65.30
2022-09-28T16:59:29.152Z,63.90
2022-09-28T17:01:59.095Z,69.00
2022-09-28T17:04:26.625Z,68.97
2022-09-28T17:06:54.429Z,66.47
2022-09-28T17:09:24.125Z,66.25
2022-09-28T17:11:56.986Z,66.82
2022-09-28T17:14:24.270Z,65.97
2022-09-28T17:17:13.766Z,56.70
2022-09-28T17:19:40.669Z,24.17
2022-09-28T17:22:09.067Z,21.83
2022-09-28T17:24:35.695Z,20.58
2022-09-28T17:27:03.425Z,16.77
2022-09-28T17:29:30.296Z,10.20
2022-09-28T17:31:56.871Z,8.60
2022-09-28T17:34:23.796Z,7.75
2022-09-28T17:36:50.504Z,9.00
2022-09-28T17:39:19.158Z,9.10
2022-09-28T17:41:45.872Z,7.72
2022-09-28T17:44:16.062Z,8.43
2022-09-28T17:46:49.177Z,7.10
2022-09-28T17:49:16.740Z,7.25
2022-09-28T17:51:43.403Z,7.22
2022-09-28T17:54:10.356Z,9.73
2022-09-28T17:56:37.120Z,8.73
2022-09-28T17:59:06.638Z,7.75
2022-09-28T18:01:34.676Z,9.35
2022-09-28T18:04:05.776Z,9.98
2022-09-28T18:06:37.310Z,8.38
2022-09-28T18:09:05.343Z,12.93
2022-09-28T18:11:32.960Z,11.95
2022-09-28T18:13:59.646Z,14.10
2022-09-28T18:16:28.030Z,18.27
2022-09-28T18:18:54.930Z,13.70
2022-09-28T18:21:21.551Z,11.43
2022-09-28T18:23:48.215Z,10.38
2022-09-28T18:26:26.640Z,9.93
2022-09-28T18:28:56.279Z,11.68
2022-09-28T18:31:23.033Z,10.57
2022-09-28T18:33:49.942Z,9.60
2022-09-28T18:36:16.612Z,9.27
2022-09-28T18:38:43.162Z,12.13
2022-09-28T18:41:15.786Z,11.23
2022-09-28T18:43:48.970Z,9.55
2022-09-28T18:46:15.890Z,8.70
2022-09-28T18:48:44.041Z,13.48
2022-09-28T18:51:11.961Z,11.63
2022-09-28T18:53:41.766Z,12.80
2022-09-28T18:56:10.145Z,10.48
2022-09-28T18:58:37.860Z,12.40
2022-09-28T19:01:28.359Z,10.88
2022-09-28T19:03:55.116Z,11.13
2022-09-28T19:06:21.730Z,13.98
2022-09-28T19:08:52.829Z,11.15
2022-09-28T19:11:19.567Z,11.80
2022-09-28T19:13:46.122Z,11.82
2022-09-28T19:16:14.636Z,10.45
2022-09-28T19:18:41.655Z,12.73
2022-09-28T19:21:11.533Z,12.70
2022-09-28T19:23:39.215Z,12.07
2022-09-28T19:26:08.566Z,14.93
2022-09-28T19:28:35.595Z,11.07
2022-09-28T19:31:04.020Z,12.00
2022-09-28T19:33:30.761Z,10.90
2022-09-28T19:35:59.055Z,12.00
2022-09-28T19:38:29.378Z,11.38
2022-09-28T19:40:56.463Z,10.00
2022-09-28T19:43:23.177Z,10.35
2022-09-28T19:45:52.466Z,11.43
2022-09-28T19:48:21.908Z,12.85
2022-09-28T19:51:15.663Z,10.25
2022-09-28T19:53:42.271Z,14.52
2022-09-28T19:56:08.883Z,9.90
2022-09-28T19:58:36.720Z,10.05
2022-09-28T20:01:08.706Z,16.52
2022-09-28T20:03:35.414Z,12.77
2022-09-28T20:06:02.448Z,12.10
2022-09-28T20:08:32.335Z,11.95
2022-09-28T20:10:59.986Z,13.57
2022-09-28T20:13:31.690Z,12.38
2022-09-28T20:16:10.242Z,11.73
2022-09-28T20:18:38.794Z,11.48
2022-09-28T20:21:07.436Z,11.35
2022-09-28T20:23:38.875Z,13.90
2022-09-28T20:26:06.865Z,10.68
2022-09-28T20:28:33.426Z,9.75
2022-09-28T20:31:07.545Z,11.35
2022-09-28T20:33:35.459Z,10.73
2022-09-28T20:36:07.067Z,11.55
2022-09-28T20:38:34.220Z,10.68
2022-09-28T20:41:01.757Z,10.27
2022-09-28T20:43:32.146Z,10.52
2022-09-28T20:45:58.996Z,11.27
2022-09-28T20:48:26.204Z,11.15
2022-09-28T20:51:00.861Z,13.63
2022-09-28T20:53:27.522Z,13.85
2022-09-28T20:56:05.236Z,13.35
2022-09-28T20:58:31.896Z,11.63
2022-09-28T21:01:11.273Z,11.80
2022-09-28T21:03:38.391Z,18.10
2022-09-28T21:06:10.036Z,14.32
2022-09-28T21:08:38.635Z,14.73
2022-09-28T21:11:06.574Z,17.23
2022-09-28T21:13:33.598Z,15.70
2022-09-28T21:16:04.176Z,16.25
2022-09-28T21:18:30.879Z,15.02
2022-09-28T21:20:57.532Z,15.25
2022-09-28T21:23:25.022Z,13.85
2022-09-28T21:26:03.300Z,11.15
2022-09-28T21:28:32.059Z,12.75
2022-09-28T21:31:00.307Z,14.60
2022-09-28T21:33:27.111Z,15.38
2022-09-28T21:35:53.895Z,15.85
2022-09-28T21:38:20.455Z,17.33
2022-09-28T21:40:47.192Z,13.98
2022-09-28T21:43:13.911Z,14.07
2022-09-28T21:45:41.824Z,16.48
2022-09-28T21:48:08.496Z,17.15
2022-09-28T21:50:35.184Z,13.73
2022-09-28T21:53:03.208Z,18.20
2022-09-28T21:55:29.845Z,24.55
2022-09-28T21:57:56.389Z,28.38
2022-09-28T22:00:26.229Z,24.55
2022-09-28T22:02:53.003Z,23.73
2022-09-28T22:05:19.746Z,22.52
2022-09-28T22:07:48.873Z,30.60
2022-09-28T22:10:15.473Z,24.80
2022-09-28T22:12:42.216Z,22.85
2022-09-28T22:15:09.948Z,21.65
2022-09-28T22:17:36.552Z,24.02
2022-09-28T22:20:03.862Z,23.73
2022-09-28T22:22:30.519Z,25.60
2022-09-28T22:24:57.101Z,25.08
2022-09-28T22:27:24.105Z,26.38
2022-09-28T22:29:51.169Z,29.40
2022-09-28T22:32:17.852Z,19.50
2022-09-28T22:34:44.523Z,19.05
2022-09-28T22:37:11.100Z,21.95
2022-09-28T22:39:38.069Z,18.70
2022-09-28T22:42:04.881Z,24.45
2022-09-28T22:44:35.691Z,20.23
2022-09-28T22:47:02.660Z,22.55
2022-09-28T22:49:29.411Z,22.90
2022-09-28T22:51:56.117Z,21.00
2022-09-28T22:54:22.711Z,22.02
2022-09-28T22:56:49.433Z,22.80
2022-09-28T22:59:15.974Z,24.23
2022-09-28T23:01:42.585Z,23.58
2022-09-28T23:04:09.281Z,21.83
2022-09-28T23:06:35.893Z,22.90
2022-09-28T23:09:02.656Z,21.98
2022-09-28T23:11:29.776Z,23.40
2022-09-28T23:13:58.196Z,34.75
2022-09-28T23:16:26.855Z,29.00
2022-09-28T23:18:55.131Z,37.80
2022-09-28T23:21:24.526Z,49.88
2022-09-28T23:23:53.519Z,59.05
2022-09-28T23:26:25.494Z,55.85
2022-09-28T23:28:53.042Z,37.55
2022-09-28T23:31:27.985Z,44.97
2022-09-28T23:34:03.436Z,39.88
2022-09-28T23:38:56.709Z,38.40
2022-09-28T23:41:23.354Z,31.30
2022-09-28T23:43:49.937Z,29.52
2022-09-28T23:46:20.731Z,33.08
2022-09-28T23:48:48.558Z,33.75
2022-09-28T23:51:15.182Z,33.72
2022-09-28T23:53:41.743Z,32.40
2022-09-28T23:56:08.281Z,40.28
2022-09-28T23:58:34.910Z,35.67
